Time;durP1;ratioP1;P1;durP2;ratioP2;P2;SDS_P1;SDS_P2;PMS_P1;PMS_P2;Temp;Humidity;BMP_temperature;BMP_pressure;BME280_temperature;BME280_humidity;BME280_pressure;Samples;Min_cycle;Max_cycle;Signal;HPM_P1;HPM_P2
2022/06/07 00:02:28;;;;;;;4.28;2.55;;;;;;;;;;5071447;28;20029;-86
2022/06/07 00:04:54;;;;;;;5.32;2.50;;;;;;;;;;5072089;28;20041;-86
2022/06/07 00:07:22;;;;;;;3.05;2.28;;;;;;;;;;5072819;28;20037;-86
2022/06/07 00:09:47;;;;;;;2.95;2.20;;;;;;;;;;5070968;28;20033;-85
2022/06/07 00:12:13;;;;;;;4.25;2.10;;;;;;;;;;5103853;22;20132;-86
2022/06/07 00:14:39;;;;;;;4.53;2.03;;;;;;;;;;5073512;28;20034;-86
2022/06/07 00:17:05;;;;;;;6.95;2.15;;;;;;;;;;5072846;28;20378;-86
2022/06/07 00:19:32;;;;;;;3.15;1.98;;;;;;;;;;5071836;28;20054;-85
2022/06/07 00:21:58;;;;;;;3.10;1.83;;;;;;;;;;5071492;28;20030;-84
2022/06/07 00:24:23;;;;;;;3.65;1.80;;;;;;;;;;5072016;28;20093;-84
2022/06/07 00:26:49;;;;;;;2.35;1.80;;;;;;;;;;5083089;28;20039;-84
2022/06/07 00:29:15;;;;;;;3.35;1.92;;;;;;;;;;5076277;28;20040;-84
2022/06/07 00:31:41;;;;;;;3.08;1.70;;;;;;;;;;5076066;28;20040;-84
2022/06/07 00:34:07;;;;;;;3.35;1.75;;;;;;;;;;5077556;28;20401;-84
2022/06/07 00:36:34;;;;;;;3.50;1.55;;;;;;;;;;5059458;28;20476;-84
2022/06/07 00:38:59;;;;;;;4.43;1.85;;;;;;;;;;5075952;28;20064;-85
2022/06/07 00:41:25;;;;;;;6.97;2.00;;;;;;;;;;5077042;28;20035;-85
2022/06/07 00:44:25;;;;;;;4.68;1.60;;;;;;;;;;5075427;28;20060;-83
2022/06/07 00:47:15;;;;;;;4.43;1.60;;;;;;;;;;5076862;28;20059;-84
2022/06/07 00:49:55;;;;;;;1.95;1.60;;;;;;;;;;5075519;28;20131;-83
2022/06/07 00:52:23;;;;;;;3.17;1.60;;;;;;;;;;5076795;28;20520;-85
2022/06/07 00:54:49;;;;;;;2.58;1.60;;;;;;;;;;5074725;28;20036;-84
2022/06/07 00:57:31;;;;;;;3.63;1.75;;;;;;;;;;5062044;28;20123;-84
2022/06/07 01:00:03;;;;;;;1.90;1.52;;;;;;;;;;5076255;28;20094;-83
2022/06/07 01:02:30;;;;;;;2.30;1.65;;;;;;;;;;5059654;28;20119;-85
2022/06/07 01:04:58;;;;;;;3.05;1.50;;;;;;;;;;5080587;28;20067;-85
2022/06/07 01:12:57;;;;;;;3.47;1.55;;;;;;;;;;5074325;28;20043;-84
2022/06/07 01:15:25;;;;;;;2.83;1.67;;;;;;;;;;5073765;28;20029;-84
2022/06/07 01:17:52;;;;;;;2.08;1.42;;;;;;;;;;5074132;28;20032;-85
2022/06/07 01:20:19;;;;;;;2.38;1.50;;;;;;;;;;5073479;28;20528;-83
2022/06/07 01:22:44;;;;;;;2.55;1.40;;;;;;;;;;5056737;28;20041;-86
2022/06/07 01:25:10;;;;;;;4.93;1.92;;;;;;;;;;5072654;28;20024;-85
2022/06/07 01:27:36;;;;;;;2.75;1.60;;;;;;;;;;5056539;28;20488;-83
2022/06/07 01:30:05;;;;;;;2.25;1.65;;;;;;;;;;5072820;28;20447;-83
2022/06/07 01:32:30;;;;;;;2.15;1.50;;;;;;;;;;5074177;28;20028;-84
2022/06/07 01:34:56;;;;;;;2.65;1.80;;;;;;;;;;5065878;28;20044;-85
2022/06/07 01:37:21;;;;;;;4.38;1.73;;;;;;;;;;5075397;28;20047;-83
2022/06/07 01:42:31;;;;;;;4.05;1.80;;;;;;;;;;5075587;28;20119;-85
2022/06/07 01:44:57;;;;;;;2.97;1.80;;;;;;;;;;5074101;28;20178;-85
2022/06/07 01:47:30;;;;;;;1.90;1.70;;;;;;;;;;5076765;28;20055;-83
2022/06/07 01:49:58;;;;;;;2.40;1.70;;;;;;;;;;5078405;28;20119;-88
2022/06/07 01:52:27;;;;;;;2.47;1.80;;;;;;;;;;5087756;28;20485;-86
2022/06/07 01:54:57;;;;;;;2.05;1.50;;;;;;;;;;5078129;28;20028;-86
2022/06/07 01:57:24;;;;;;;4.15;1.85;;;;;;;;;;5078289;28;20032;-86
2022/06/07 01:59:54;;;;;;;2.25;1.80;;;;;;;;;;5077424;28;20047;-86
2022/06/07 02:02:24;;;;;;;4.47;1.98;;;;;;;;;;5065454;28;20056;-86
2022/06/07 02:04:51;;;;;;;2.65;2.00;;;;;;;;;;5077518;28;20115;-88
2022/06/07 02:07:19;;;;;;;3.28;2.00;;;;;;;;;;5077007;28;20058;-86
2022/06/07 02:09:48;;;;;;;2.15;1.70;;;;;;;;;;5076368;28;20104;-85
2022/06/07 02:12:15;;;;;;;5.00;1.70;;;;;;;;;;5074323;28;20060;-84
2022/06/07 02:14:40;;;;;;;3.08;1.73;;;;;;;;;;5072792;28;20098;-85
2022/06/07 02:17:07;;;;;;;4.47;2.00;;;;;;;;;;5074313;28;20374;-85
2022/06/07 02:19:41;;;;;;;2.45;1.80;;;;;;;;;;5074483;28;20031;-87
2022/06/07 02:22:07;;;;;;;2.80;1.80;;;;;;;;;;5057542;28;20040;-85
2022/06/07 02:24:33;;;;;;;3.45;1.90;;;;;;;;;;5057039;28;20077;-86
2022/06/07 02:27:06;;;;;;;3.65;1.90;;;;;;;;;;5057993;28;20028;-88
2022/06/07 02:29:37;;;;;;;2.00;1.60;;;;;;;;;;5057480;28;20234;-86
2022/06/07 02:32:15;;;;;;;3.63;1.70;;;;;;;;;;5074012;28;20040;-87
2022/06/07 02:34:45;;;;;;;2.67;1.90;;;;;;;;;;5073217;28;20535;-85
2022/06/07 02:37:12;;;;;;;2.97;2.00;;;;;;;;;;5055552;28;20520;-84
2022/06/07 02:39:38;;;;;;;3.35;2.00;;;;;;;;;;5055108;28;20024;-84
2022/06/07 02:42:06;;;;;;;3.55;2.30;;;;;;;;;;5071492;28;20032;-84
2022/06/07 02:44:33;;;;;;;4.47;2.03;;;;;;;;;;5081058;28;20074;-86
2022/06/07 02:46:58;;;;;;;3.95;2.22;;;;;;;;;;5074512;28;20025;-83
2022/06/07 02:49:24;;;;;;;4.57;2.10;;;;;;;;;;5075163;28;20493;-82
2022/06/07 02:51:49;;;;;;;4.88;2.20;;;;;;;;;;5058020;28;20079;-85
2022/06/07 02:54:15;;;;;;;3.85;2.50;;;;;;;;;;5058268;28;20032;-84
2022/06/07 02:56:41;;;;;;;6.68;2.50;;;;;;;;;;5080468;28;20063;-85
2022/06/07 02:59:06;;;;;;;2.95;2.30;;;;;;;;;;5073425;28;20093;-84
2022/06/07 03:01:32;;;;;;;5.22;2.47;;;;;;;;;;5056688;28;20036;-85
2022/06/07 03:04:00;;;;;;;2.78;2.40;;;;;;;;;;5072995;28;20021;-85
2022/06/07 03:06:30;;;;;;;4.55;2.80;;;;;;;;;;5073362;28;20103;-85
2022/06/07 03:08:56;;;;;;;4.95;2.20;;;;;;;;;;5073180;28;20504;-85
2022/06/07 03:11:22;;;;;;;3.55;2.40;;;;;;;;;;5072714;28;20050;-85
2022/06/07 03:13:48;;;;;;;2.28;2.08;;;;;;;;;;5057054;28;20064;-87
2022/06/07 03:16:20;;;;;;;4.78;2.20;;;;;;;;;;5073486;28;20509;-84
2022/06/07 03:18:48;;;;;;;2.30;1.90;;;;;;;;;;5073127;28;20497;-86
2022/06/07 03:21:13;;;;;;;3.10;1.50;;;;;;;;;;5073223;28;20044;-84
2022/06/07 03:23:42;;;;;;;1.90;1.52;;;;;;;;;;5073152;28;20040;-85
2022/06/07 03:26:11;;;;;;;2.42;1.60;;;;;;;;;;5055742;28;20032;-85
2022/06/07 03:28:44;;;;;;;3.45;1.65;;;;;;;;;;5073143;28;20119;-85
2022/06/07 03:31:15;;;;;;;3.55;2.00;;;;;;;;;;5056298;28;20393;-87
2022/06/07 03:33:45;;;;;;;3.53;2.20;;;;;;;;;;5071697;28;20064;-85
2022/06/07 03:36:22;;;;;;;3.28;2.40;;;;;;;;;;5070694;28;20098;-84
2022/06/07 03:38:48;;;;;;;4.72;2.60;;;;;;;;;;5071095;28;20054;-84
2022/06/07 03:41:17;;;;;;;4.25;2.90;;;;;;;;;;5071250;28;20070;-84
2022/06/07 03:43:43;;;;;;;7.00;3.17;;;;;;;;;;5074641;28;20036;-83
2022/06/07 03:46:17;;;;;;;3.90;2.63;;;;;;;;;;5072337;28;20089;-84
2022/06/07 03:48:45;;;;;;;3.75;2.75;;;;;;;;;;5073148;28;20114;-83
2022/06/07 03:51:13;;;;;;;4.60;3.03;;;;;;;;;;5075360;28;20043;-89
2022/06/07 03:53:40;;;;;;;3.53;2.80;;;;;;;;;;5078914;28;20028;-88
2022/06/07 03:56:07;;;;;;;5.32;3.10;;;;;;;;;;5078087;28;20041;-87
2022/06/07 03:58:38;;;;;;;7.72;3.17;;;;;;;;;;5072815;28;20028;-86
2022/06/07 04:01:07;;;;;;;4.75;3.30;;;;;;;;;;5071924;28;20033;-87
2022/06/07 04:03:33;;;;;;;3.63;2.80;;;;;;;;;;5058590;28;20515;-87
2022/06/07 04:06:01;;;;;;;4.00;2.88;;;;;;;;;;5075743;28;20112;-86
2022/06/07 04:08:31;;;;;;;4.78;3.00;;;;;;;;;;5076542;28;20028;-86
2022/06/07 04:11:02;;;;;;;4.80;3.17;;;;;;;;;;5076219;28;20037;-85
2022/06/07 04:13:36;;;;;;;6.65;3.00;;;;;;;;;;5076281;28;20051;-84
2022/06/07 04:16:12;;;;;;;4.55;2.80;;;;;;;;;;5059326;28;20029;-85
2022/06/07 04:18:44;;;;;;;5.35;3.35;;;;;;;;;;5075477;28;20039;-83
2022/06/07 04:21:12;;;;;;;4.70;3.05;;;;;;;;;;5059073;28;20028;-85
2022/06/07 04:23:38;;;;;;;4.18;2.80;;;;;;;;;;5076376;28;20539;-84
2022/06/07 04:26:34;;;;;;;4.63;2.78;;;;;;;;;;5076356;28;20131;-84
2022/06/07 04:29:00;;;;;;;6.70;3.30;;;;;;;;;;5065338;28;20041;-85
2022/06/07 04:31:27;;;;;;;4.35;2.90;;;;;;;;;;5076123;28;20020;-83
2022/06/07 04:33:58;;;;;;;4.25;2.85;;;;;;;;;;5074708;28;20033;-87
2022/06/07 04:36:26;;;;;;;4.97;2.67;;;;;;;;;;5075424;28;20059;-85
2022/06/07 04:38:54;;;;;;;2.83;2.58;;;;;;;;;;5075044;28;20024;-83
2022/06/07 04:41:24;;;;;;;4.30;2.65;;;;;;;;;;5075052;28;20029;-83
2022/06/07 04:43:55;;;;;;;4.78;2.60;;;;;;;;;;5074721;28;20032;-83
2022/06/07 04:46:23;;;;;;;3.80;2.75;;;;;;;;;;5058245;28;20028;-83
2022/06/07 04:48:52;;;;;;;3.65;2.65;;;;;;;;;;5081941;28;20028;-82
2022/06/07 04:51:29;;;;;;;4.53;2.90;;;;;;;;;;5073925;28;20028;-88
2022/06/07 04:54:03;;;;;;;2.75;2.42;;;;;;;;;;5073232;28;20036;-84
2022/06/07 04:56:35;;;;;;;3.72;2.67;;;;;;;;;;5073936;28;20028;-84
2022/06/07 04:59:03;;;;;;;5.50;2.78;;;;;;;;;;5057135;28;20085;-85
2022/06/07 05:01:35;;;;;;;5.55;3.10;;;;;;;;;;5073404;28;20032;-85
2022/06/07 05:04:06;;;;;;;4.32;3.10;;;;;;;;;;5084391;28;20102;-86
2022/06/07 05:06:35;;;;;;;3.10;2.08;;;;;;;;;;5079531;28;20037;-86
2022/06/07 05:09:17;;;;;;;3.90;2.90;;;;;;;;;;5076032;28;20488;-82
2022/06/07 05:11:47;;;;;;;4.13;3.17;;;;;;;;;;5076691;28;20036;-85
2022/06/07 05:14:13;;;;;;;4.13;2.80;;;;;;;;;;5076673;28;20094;-85
2022/06/07 05:16:43;;;;;;;4.00;2.80;;;;;;;;;;5076710;28;20036;-85
2022/06/07 05:19:13;;;;;;;4.22;3.00;;;;;;;;;;5076903;28;20048;-83
2022/06/07 05:21:41;;;;;;;3.50;2.88;;;;;;;;;;5076623;28;20039;-83
2022/06/07 05:24:08;;;;;;;4.13;2.83;;;;;;;;;;5076940;28;20074;-83
2022/06/07 05:26:39;;;;;;;5.78;2.83;;;;;;;;;;5078236;28;20040;-83
2022/06/07 05:29:14;;;;;;;5.50;2.80;;;;;;;;;;5058734;28;20090;-83
2022/06/07 05:31:41;;;;;;;4.32;3.78;;;;;;;;;;5074565;28;20032;-83
2022/06/07 05:34:08;;;;;;;5.72;3.95;;;;;;;;;;5074321;28;20027;-84
2022/06/07 05:36:37;;;;;;;6.78;3.60;;;;;;;;;;5074681;28;20551;-85
2022/06/07 05:39:06;;;;;;;4.85;3.08;;;;;;;;;;5074172;28;20075;-85
2022/06/07 05:41:33;;;;;;;5.13;2.90;;;;;;;;;;5074197;28;20058;-87
2022/06/07 05:44:06;;;;;;;4.90;3.17;;;;;;;;;;5080745;28;20032;-82
2022/06/07 05:46:37;;;;;;;4.78;3.08;;;;;;;;;;5073309;28;20058;-85
2022/06/07 05:49:16;;;;;;;4.60;3.33;;;;;;;;;;5058325;28;20411;-87
2022/06/07 05:51:53;;;;;;;4.75;3.10;;;;;;;;;;5072871;28;20496;-85
2022/06/07 05:54:20;;;;;;;4.70;3.47;;;;;;;;;;5072247;28;20032;-85
2022/06/07 05:56:46;;;;;;;5.45;3.40;;;;;;;;;;5056295;28;20119;-85
2022/06/07 05:59:12;;;;;;;3.88;3.20;;;;;;;;;;5073065;28;20052;-86
2022/06/07 06:01:38;;;;;;;5.50;3.55;;;;;;;;;;5075686;28;20504;-85
2022/06/07 06:04:07;;;;;;;4.15;3.10;;;;;;;;;;5056297;28;20036;-87
2022/06/07 06:06:38;;;;;;;5.38;3.30;;;;;;;;;;5057192;28;20039;-87
2022/06/07 06:11:54;;;;;;;4.63;2.97;;;;;;;;;;5092363;22;20040;-86
2022/06/07 06:14:43;;;;;;;5.18;3.40;;;;;;;;;;5078538;28;20028;-87
2022/06/07 06:17:16;;;;;;;3.45;2.70;;;;;;;;;;5067016;28;20496;-88
2022/06/07 06:19:47;;;;;;;4.68;3.00;;;;;;;;;;5081847;28;20043;-88
2022/06/07 06:22:14;;;;;;;3.40;2.80;;;;;;;;;;5063913;28;20082;-87
2022/06/07 06:24:44;;;;;;;5.28;3.15;;;;;;;;;;5081250;28;20397;-88
2022/06/07 06:27:10;;;;;;;4.85;3.28;;;;;;;;;;5065285;28;20063;-88
2022/06/07 06:29:40;;;;;;;4.90;3.50;;;;;;;;;;5084050;28;20026;-87
2022/06/07 06:32:06;;;;;;;3.72;3.10;;;;;;;;;;5084650;28;20035;-87
2022/06/07 06:34:32;;;;;;;4.57;3.20;;;;;;;;;;5082560;28;20029;-87
2022/06/07 06:37:01;;;;;;;5.80;3.60;;;;;;;;;;5086051;28;20025;-87
2022/06/07 06:39:32;;;;;;;4.47;3.00;;;;;;;;;;5085782;28;20028;-87
2022/06/07 06:41:58;;;;;;;3.70;3.00;;;;;;;;;;5086238;28;20102;-87
2022/06/07 06:44:38;;;;;;;3.60;2.97;;;;;;;;;;5085293;28;20056;-87
2022/06/07 06:47:04;;;;;;;4.45;3.17;;;;;;;;;;5084724;28;20039;-87
2022/06/07 06:49:32;;;;;;;4.82;3.60;;;;;;;;;;5066644;28;20166;-86
2022/06/07 06:51:59;;;;;;;6.43;3.78;;;;;;;;;;5082422;28;20113;-86
2022/06/07 06:54:30;;;;;;;4.82;3.40;;;;;;;;;;5064392;28;20059;-86
2022/06/07 06:57:04;;;;;;;4.15;3.30;;;;;;;;;;5064528;28;20120;-86
2022/06/07 06:59:31;;;;;;;3.60;2.92;;;;;;;;;;5066279;28;20056;-86
2022/06/07 07:01:59;;;;;;;3.00;2.67;;;;;;;;;;5049570;28;20033;-86
2022/06/07 07:04:29;;;;;;;4.30;3.03;;;;;;;;;;5049252;28;20033;-87
2022/06/07 07:06:57;;;;;;;5.78;3.42;;;;;;;;;;5065056;28;20028;-86
2022/06/07 07:09:26;;;;;;;3.97;2.88;;;;;;;;;;5065225;28;20018;-86
2022/06/07 07:11:54;;;;;;;5.13;3.60;;;;;;;;;;5064472;28;20493;-86
2022/06/07 07:14:31;;;;;;;6.32;4.30;;;;;;;;;;5064870;28;20035;-87
2022/06/07 07:16:58;;;;;;;5.15;3.88;;;;;;;;;;5063176;28;20037;-87
2022/06/07 07:19:24;;;;;;;6.20;3.42;;;;;;;;;;5062051;28;20079;-86
2022/06/07 07:21:52;;;;;;;5.75;4.25;;;;;;;;;;5061368;28;20037;-86
2022/06/07 07:24:21;;;;;;;6.50;4.20;;;;;;;;;;5062259;28;20036;-86
2022/06/07 07:26:52;;;;;;;3.97;3.50;;;;;;;;;;5062745;28;20029;-85
2022/06/07 07:29:22;;;;;;;4.88;3.50;;;;;;;;;;5062929;28;20065;-85
2022/06/07 07:31:49;;;;;;;4.35;3.55;;;;;;;;;;5062991;28;20063;-85
2022/06/07 07:34:18;;;;;;;4.57;3.38;;;;;;;;;;5062381;28;20067;-85
2022/06/07 07:36:50;;;;;;;4.43;3.60;;;;;;;;;;5060646;28;20067;-85
2022/06/07 07:39:17;;;;;;;4.13;3.40;;;;;;;;;;5062948;28;20056;-85
2022/06/07 07:41:48;;;;;;;4.68;3.90;;;;;;;;;;5064666;28;20032;-85
2022/06/07 07:44:16;;;;;;;4.53;3.70;;;;;;;;;;5064470;28;20033;-85
2022/06/07 07:46:45;;;;;;;3.95;3.47;;;;;;;;;;5064211;28;20334;-85
2022/06/07 07:49:17;;;;;;;4.43;3.50;;;;;;;;;;5064130;28;20378;-85
2022/06/07 07:51:46;;;;;;;5.28;3.70;;;;;;;;;;5064124;28;20037;-84
2022/06/07 07:54:15;;;;;;;5.60;3.60;;;;;;;;;;5065332;28;20056;-86
2022/06/07 07:56:41;;;;;;;4.35;3.53;;;;;;;;;;5064610;28;20117;-85
2022/06/07 07:59:10;;;;;;;5.13;3.85;;;;;;;;;;5065500;28;20025;-85
2022/06/07 08:01:36;;;;;;;5.03;3.78;;;;;;;;;;5062331;28;20028;-85
2022/06/07 08:04:03;;;;;;;7.13;3.45;;;;;;;;;;5061680;28;20126;-84
2022/06/07 08:06:41;;;;;;;6.60;4.00;;;;;;;;;;5046274;28;20223;-85
2022/06/07 08:09:08;;;;;;;6.07;4.20;;;;;;;;;;5063201;28;20501;-85
2022/06/07 08:11:36;;;;;;;5.22;3.85;;;;;;;;;;5061880;28;20057;-85
2022/06/07 08:14:07;;;;;;;6.95;4.10;;;;;;;;;;5062497;28;20033;-85
2022/06/07 08:16:32;;;;;;;6.18;3.92;;;;;;;;;;5063950;28;20043;-85
2022/06/07 08:18:58;;;;;;;6.30;3.88;;;;;;;;;;5061072;28;20021;-84
2022/06/07 08:21:26;;;;;;;3.72;3.20;;;;;;;;;;5062324;28;20550;-85
2022/06/07 08:23:54;;;;;;;4.45;3.40;;;;;;;;;;5063136;28;20031;-85
2022/06/07 08:26:21;;;;;;;3.60;3.10;;;;;;;;;;5062112;28;20036;-85
2022/06/07 08:28:47;;;;;;;4.68;2.97;;;;;;;;;;5065331;28;20037;-86
2022/06/07 08:31:19;;;;;;;3.70;3.10;;;;;;;;;;5066410;28;20052;-86
2022/06/07 08:39:33;;;;;;;;;;;;;;;;;;4988643;28;20035;-84
2022/06/07 08:42:12;;;;;;;5.00;3.72;;;;;;;;;;4986745;28;19921;-86
2022/06/07 08:45:07;;;;;;;4.20;3.50;;;;;;;;;;5031084;28;20041;-86
2022/06/07 08:47:35;;;;;;;5.25;3.30;;;;;;;;;;5057242;28;20063;-85
2022/06/07 08:50:13;;;;;;;4.65;3.45;;;;;;;;;;5063754;28;20037;-86
2022/06/07 08:52:39;;;;;;;5.82;3.10;;;;;;;;;;5069568;28;20047;-87
2022/06/07 08:55:19;;;;;;;4.57;3.13;;;;;;;;;;5069266;28;20033;-86
2022/06/07 08:57:54;;;;;;;3.60;2.70;;;;;;;;;;5068626;28;20029;-86
2022/06/07 09:00:32;;;;;;;3.78;2.92;;;;;;;;;;5067711;28;20033;-86
2022/06/07 09:03:16;;;;;;;5.15;2.92;;;;;;;;;;5066672;28;20033;-86
2022/06/07 09:05:41;;;;;;;3.42;2.92;;;;;;;;;;5048564;28;20047;-86
2022/06/07 09:08:12;;;;;;;3.78;3.25;;;;;;;;;;5066766;28;20124;-86
2022/06/07 09:13:24;;;;;;;4.68;3.17;;;;;;;;;;5065305;28;20037;-86
2022/06/07 09:15:54;;;;;;;3.95;2.90;;;;;;;;;;5066022;28;20078;-86
2022/06/07 09:18:25;;;;;;;3.80;2.85;;;;;;;;;;5066046;28;20074;-86
2022/06/07 09:20:55;;;;;;;3.67;2.90;;;;;;;;;;5063990;28;20029;-86
2022/06/07 09:23:29;;;;;;;4.50;3.13;;;;;;;;;;5063837;28;20036;-86
2022/06/07 09:25:57;;;;;;;3.30;3.00;;;;;;;;;;5061162;28;20119;-84
2022/06/07 09:28:28;;;;;;;3.53;3.08;;;;;;;;;;5054834;28;20560;-85
2022/06/07 09:31:10;;;;;;;3.63;2.80;;;;;;;;;;5054753;28;20039;-84
2022/06/07 09:33:50;;;;;;;4.85;3.10;;;;;;;;;;5054753;28;20131;-85
2022/06/07 09:36:25;;;;;;;4.13;3.00;;;;;;;;;;5052870;28;20032;-84
2022/06/07 09:38:55;;;;;;;3.40;3.10;;;;;;;;;;5053177;28;20040;-85
2022/06/07 09:41:36;;;;;;;3.53;2.83;;;;;;;;;;5054663;28;20029;-85
2022/06/07 09:44:22;;;;;;;4.10;2.83;;;;;;;;;;5052644;28;20039;-84
2022/06/07 09:47:16;;;;;;;5.95;3.13;;;;;;;;;;5054508;28;20481;-85
2022/06/07 09:49:43;;;;;;;6.97;3.35;;;;;;;;;;5054377;28;20037;-84
2022/06/07 09:52:26;;;;;;;7.38;2.75;;;;;;;;;;5053036;28;20033;-84
2022/06/07 09:55:26;;;;;;;4.82;2.85;;;;;;;;;;5036256;28;20408;-83
2022/06/07 09:58:02;;;;;;;8.48;2.50;;;;;;;;;;5055447;28;20382;-83
2022/06/07 10:00:58;;;;;;;6.45;2.40;;;;;;;;;;5053136;28;20036;-84
2022/06/07 10:03:27;;;;;;;3.55;1.52;;;;;;;;;;5034733;28;20078;-84
2022/06/07 10:06:16;;;;;;;2.75;1.80;;;;;;;;;;5053172;28;20401;-84
2022/06/07 10:08:53;;;;;;;1.65;1.38;;;;;;;;;;5053755;28;20042;-84
2022/06/07 10:11:25;;;;;;;2.35;1.20;;;;;;;;;;5053933;28;20058;-84
2022/06/07 10:14:23;;;;;;;1.73;1.30;;;;;;;;;;5053682;28;20064;-83
2022/06/07 10:17:29;;;;;;;1.30;1.17;;;;;;;;;;5053629;28;20024;-84
2022/06/07 10:20:06;;;;;;;2.03;1.20;;;;;;;;;;5052384;28;20063;-84
2022/06/07 10:22:35;;;;;;;1.65;1.00;;;;;;;;;;5053667;28;20029;-84
2022/06/07 10:25:13;;;;;;;1.30;1.10;;;;;;;;;;5051693;28;20049;-84
2022/06/07 10:28:00;;;;;;;1.42;1.00;;;;;;;;;;5052176;28;20037;-84
2022/06/07 10:30:29;;;;;;;1.35;0.90;;;;;;;;;;5052165;28;20036;-84
2022/06/07 10:33:13;;;;;;;1.48;0.82;;;;;;;;;;5055208;28;20037;-85
2022/06/07 10:35:42;;;;;;;2.35;1.05;;;;;;;;;;5055930;28;20377;-84
2022/06/07 10:38:35;;;;;;;3.45;1.40;;;;;;;;;;5053478;28;20041;-85
2022/06/07 10:41:52;;;;;;;1.13;1.00;;;;;;;;;;5052325;28;20032;-84
2022/06/07 10:44:51;;;;;;;1.10;0.90;;;;;;;;;;5018820;28;20506;-85
2022/06/07 10:47:38;;;;;;;1.10;0.88;;;;;;;;;;5052913;28;20076;-84
2022/06/07 10:50:17;;;;;;;0.73;0.73;;;;;;;;;;5054954;28;20060;-85
2022/06/07 10:52:51;;;;;;;1.20;0.90;;;;;;;;;;5057749;28;20067;-85
2022/06/07 10:55:25;;;;;;;2.22;1.23;;;;;;;;;;5056498;28;20044;-85
2022/06/07 10:58:12;;;;;;;1.48;0.90;;;;;;;;;;5055371;28;20037;-85
2022/06/07 11:00:46;;;;;;;0.95;0.85;;;;;;;;;;5053828;28;20088;-86
2022/06/07 11:03:39;;;;;;;0.80;0.80;;;;;;;;;;5051660;28;20523;-86
2022/06/07 11:09:19;;;;;;;0.50;0.50;;;;;;;;;;5051836;28;20045;-86
2022/06/07 11:11:47;;;;;;;0.73;0.55;;;;;;;;;;5051131;28;20104;-85
2022/06/07 11:14:45;;;;;;;0.50;0.50;;;;;;;;;;5051132;28;20067;-85
2022/06/07 11:17:29;;;;;;;1.20;0.70;;;;;;;;;;5031695;28;20041;-85
2022/06/07 11:20:00;;;;;;;0.50;0.50;;;;;;;;;;5052630;28;20086;-86
2022/06/07 11:22:34;;;;;;;0.60;0.60;;;;;;;;;;5052453;28;20485;-85
2022/06/07 11:25:22;;;;;;;0.98;0.63;;;;;;;;;;5053266;28;20060;-85
2022/06/07 11:28:06;;;;;;;0.70;0.70;;;;;;;;;;5052621;28;20469;-85
2022/06/07 11:30:34;;;;;;;0.93;0.80;;;;;;;;;;5052719;28;20416;-85
2022/06/07 11:33:00;;;;;;;0.77;0.77;;;;;;;;;;5052552;28;20107;-85
2022/06/07 11:35:45;;;;;;;0.77;0.77;;;;;;;;;;5052221;28;20113;-85
2022/06/07 11:38:17;;;;;;;0.95;0.80;;;;;;;;;;5051334;28;20102;-85
2022/06/07 11:40:44;;;;;;;0.70;0.70;;;;;;;;;;5052315;28;20472;-85
2022/06/07 11:43:54;;;;;;;1.80;0.90;;;;;;;;;;5052612;28;20095;-85
2022/06/07 11:46:35;;;;;;;0.85;0.75;;;;;;;;;;5045507;28;20049;-85
2022/06/07 11:49:19;;;;;;;0.70;0.70;;;;;;;;;;5052811;28;20101;-85
2022/06/07 11:52:00;;;;;;;;;;;;;;;;;;5051869;28;20040;-84
2022/06/07 11:54:36;;;;;;;1.00;0.82;;;;;;;;;;5050642;28;20408;-85
2022/06/07 11:57:17;;;;;;;0.90;0.90;;;;;;;;;;5053124;28;20029;-86
2022/06/07 11:59:46;;;;;;;1.17;0.80;;;;;;;;;;5052717;28;20096;-85
2022/06/07 12:02:15;;;;;;;1.00;0.90;;;;;;;;;;5052232;28;20031;-85
2022/06/07 12:04:40;;;;;;;0.77;0.77;;;;;;;;;;5051874;28;20033;-85
2022/06/07 12:07:21;;;;;;;1.00;0.90;;;;;;;;;;5052618;28;20378;-85
2022/06/07 12:09:59;;;;;;;0.95;0.82;;;;;;;;;;5052169;28;20061;-84
2022/06/07 12:12:35;;;;;;;1.60;0.80;;;;;;;;;;5053416;28;20029;-85
2022/06/07 12:15:13;;;;;;;0.88;0.80;;;;;;;;;;5051735;28;20033;-85
2022/06/07 12:17:52;;;;;;;1.20;1.00;;;;;;;;;;5052623;28;20033;-85
2022/06/07 12:20:29;;;;;;;1.23;1.00;;;;;;;;;;5053210;28;20478;-84
2022/06/07 12:22:57;;;;;;;0.90;0.90;;;;;;;;;;5052243;28;20041;-85
2022/06/07 12:25:24;;;;;;;0.85;0.80;;;;;;;;;;5054294;28;20071;-85
2022/06/07 12:27:54;;;;;;;0.90;0.82;;;;;;;;;;5055807;28;20037;-85
2022/06/07 12:30:29;;;;;;;0.95;0.77;;;;;;;;;;5054735;28;20521;-85
2022/06/07 12:32:56;;;;;;;1.23;0.90;;;;;;;;;;5056337;28;20108;-86
2022/06/07 12:35:27;;;;;;;1.00;0.90;;;;;;;;;;5055359;28;20044;-85
2022/06/07 12:38:00;;;;;;;0.98;0.90;;;;;;;;;;5056142;28;20039;-85
2022/06/07 12:40:48;;;;;;;3.00;1.08;;;;;;;;;;5055969;28;20436;-85
2022/06/07 12:43:28;;;;;;;1.60;1.08;;;;;;;;;;5054590;28;20045;-85
2022/06/07 12:46:04;;;;;;;0.98;0.90;;;;;;;;;;5037552;28;20501;-85
2022/06/07 12:48:49;;;;;;;0.90;0.90;;;;;;;;;;5055382;28;20047;-86
2022/06/07 13:16:48;;;;;;;1.35;1.25;;;;;;;;;;5271399;22;20040;-84
2022/06/07 13:19:14;;;;;;;2.38;1.40;;;;;;;;;;5074803;28;20036;-84
2022/06/07 13:22:10;;;;;;;3.17;1.65;;;;;;;;;;5075442;28;20035;-86
2022/06/07 13:24:42;;;;;;;1.85;1.60;;;;;;;;;;5074060;28;20052;-84
2022/06/07 13:27:44;;;;;;;1.85;1.40;;;;;;;;;;5074569;28;20036;-85
2022/06/07 13:30:21;;;;;;;1.90;1.52;;;;;;;;;;5052632;28;20053;-85
2022/06/07 13:33:19;;;;;;;1.88;1.58;;;;;;;;;;5074764;28;20039;-85
2022/06/07 13:35:50;;;;;;;1.38;1.27;;;;;;;;;;5065118;28;20036;-84
2022/06/07 13:38:21;;;;;;;1.60;1.30;;;;;;;;;;5075469;28;20534;-82
2022/06/07 13:40:58;;;;;;;2.47;1.50;;;;;;;;;;5076378;28;20396;-84
2022/06/07 13:43:23;;;;;;;1.45;1.23;;;;;;;;;;5076621;28;20119;-81
2022/06/07 13:45:51;;;;;;;1.58;1.30;;;;;;;;;;5076996;28;20086;-85
2022/06/07 13:48:17;;;;;;;2.70;1.40;;;;;;;;;;5081410;28;20028;-82
2022/06/07 13:53:58;;;;;;;1.73;1.55;;;;;;;;;;5080927;28;20044;-86
2022/06/07 13:56:25;;;;;;;1.75;1.60;;;;;;;;;;5077564;28;20032;-85
2022/06/07 13:58:56;;;;;;;2.90;1.60;;;;;;;;;;5078544;28;20038;-86
2022/06/07 14:01:29;;;;;;;2.25;1.55;;;;;;;;;;5077068;28;20503;-86
2022/06/07 14:04:00;;;;;;;1.45;1.35;;;;;;;;;;5075917;28;20041;-86
2022/06/07 14:06:27;;;;;;;2.55;1.33;;;;;;;;;;5077161;28;20160;-86
2022/06/07 14:08:54;;;;;;;3.33;1.30;;;;;;;;;;5076438;28;20048;-86
2022/06/07 14:11:21;;;;;;;1.30;1.20;;;;;;;;;;5075914;28;20056;-87
2022/06/07 14:13:47;;;;;;;1.63;1.40;;;;;;;;;;5076970;28;20354;-86
2022/06/07 14:16:24;;;;;;;2.45;1.38;;;;;;;;;;5075889;28;20079;-87
2022/06/07 14:18:50;;;;;;;2.22;1.25;;;;;;;;;;5079139;28;20162;-87
2022/06/07 14:21:16;;;;;;;2.00;1.20;;;;;;;;;;5075209;28;20516;-87
2022/06/07 14:23:42;;;;;;;1.30;1.20;;;;;;;;;;5077490;28;20477;-86
2022/06/07 14:26:07;;;;;;;1.15;1.05;;;;;;;;;;5076918;28;20123;-86
2022/06/07 14:28:33;;;;;;;1.20;1.10;;;;;;;;;;5077504;28;20029;-86
2022/06/07 14:30:59;;;;;;;1.20;1.10;;;;;;;;;;5077266;28;20028;-86
2022/06/07 14:33:25;;;;;;;1.23;1.13;;;;;;;;;;5077055;28;20481;-86
2022/06/07 14:35:51;;;;;;;1.30;1.00;;;;;;;;;;5077430;28;20037;-86
2022/06/07 14:38:20;;;;;;;1.13;1.00;;;;;;;;;;5077784;28;20036;-87
2022/06/07 14:40:47;;;;;;;1.10;0.90;;;;;;;;;;5077457;28;20041;-87
2022/06/07 14:43:16;;;;;;;1.40;1.10;;;;;;;;;;5075711;28;20044;-86
2022/06/07 14:45:59;;;;;;;1.48;1.08;;;;;;;;;;5074637;28;20401;-86
2022/06/07 14:48:25;;;;;;;1.48;0.90;;;;;;;;;;5077137;28;20091;-86
2022/06/07 14:50:50;;;;;;;0.90;0.90;;;;;;;;;;5076880;28;20017;-86
2022/06/07 14:53:16;;;;;;;1.67;0.70;;;;;;;;;;5076268;28;20485;-86
2022/06/07 14:55:42;;;;;;;1.25;0.90;;;;;;;;;;5076775;28;20090;-86
2022/06/07 14:58:07;;;;;;;1.63;0.90;;;;;;;;;;5077210;28;20136;-86
2022/06/07 15:00:34;;;;;;;0.70;0.68;;;;;;;;;;5075872;28;20033;-86
2022/06/07 15:03:02;;;;;;;1.88;1.05;;;;;;;;;;5076997;28;20036;-86
2022/06/07 15:05:34;;;;;;;1.00;0.70;;;;;;;;;;5077190;28;20107;-86
2022/06/07 15:08:12;;;;;;;1.03;0.80;;;;;;;;;;5080551;28;20036;-86
2022/06/07 15:10:40;;;;;;;0.73;0.70;;;;;;;;;;5078449;28;20282;-86
2022/06/07 15:13:17;;;;;;;0.82;0.80;;;;;;;;;;5080560;28;20044;-86
2022/06/07 15:15:42;;;;;;;0.88;0.80;;;;;;;;;;5078760;28;20037;-86
2022/06/07 15:18:08;;;;;;;1.88;0.80;;;;;;;;;;5080085;28;20087;-86
2022/06/07 15:20:38;;;;;;;1.00;0.80;;;;;;;;;;5065714;28;20083;-86
2022/06/07 15:26:52;;;;;;;2.50;0.80;;;;;;;;;;5037629;28;20037;-86
2022/06/07 15:29:49;;;;;;;0.75;0.70;;;;;;;;;;5037916;28;20044;-85
2022/06/07 15:32:19;;;;;;;1.52;0.73;;;;;;;;;;5038365;28;20136;-86
2022/06/07 15:34:49;;;;;;;0.90;0.80;;;;;;;;;;5038618;28;20037;-85
2022/06/07 15:37:17;;;;;;;0.90;0.80;;;;;;;;;;5038063;28;20025;-87
2022/06/07 15:39:42;;;;;;;1.88;0.82;;;;;;;;;;5051301;28;20037;-85
2022/06/07 15:44:52;;;;;;;1.95;0.90;;;;;;;;;;5036291;28;20041;-86
2022/06/07 15:47:19;;;;;;;1.52;0.80;;;;;;;;;;5035007;28;20080;-86
2022/06/07 15:49:45;;;;;;;2.17;0.98;;;;;;;;;;5035673;28;20377;-87
2022/06/07 15:52:10;;;;;;;0.90;0.80;;;;;;;;;;5036241;28;20101;-87
2022/06/07 15:54:36;;;;;;;2.35;1.00;;;;;;;;;;5050653;28;20092;-87
2022/06/07 15:57:02;;;;;;;3.80;1.00;;;;;;;;;;5036621;28;20064;-86
2022/06/07 15:59:28;;;;;;;1.42;1.00;;;;;;;;;;5034597;28;20033;-88
2022/06/07 16:01:53;;;;;;;1.00;0.80;;;;;;;;;;5053253;28;20668;-87
2022/06/07 16:04:19;;;;;;;1.30;1.10;;;;;;;;;;5037237;28;20116;-86
2022/06/07 16:06:44;;;;;;;2.35;1.35;;;;;;;;;;5036705;28;20033;-87
2022/06/07 16:09:12;;;;;;;1.35;1.20;;;;;;;;;;5037140;28;20028;-86